sensor_id;sensor_type;location;lat;lon;timestamp;P1;durP1;ratioP1;P2;durP2;ratioP2
55037;SDS011;40937;53.594;10.034;2023-04-24T00:00:55;5.20;;;4.70;;
55037;SDS011;40937;53.594;10.034;2023-04-24T00:03:22;5.40;;;4.90;;
55037;SDS011;40937;53.594;10.034;2023-04-24T00:05:49;5.13;;;4.78;;
55037;SDS011;40937;53.594;10.034;2023-04-24T00:08:17;5.50;;;5.20;;
55037;SDS011;40937;53.594;10.034;2023-04-24T00:10:44;5.68;;;4.75;;
55037;SDS011;40937;53.594;10.034;2023-04-24T00:13:11;5.38;;;4.88;;
55037;SDS011;40937;53.594;10.034;2023-04-24T00:15:38;4.90;;;4.60;;
55037;SDS011;40937;53.594;10.034;2023-04-24T00:18:06;5.25;;;4.80;;
55037;SDS011;40937;53.594;10.034;2023-04-24T00:20:33;5.05;;;4.65;;
55037;SDS011;40937;53.594;10.034;2023-04-24T00:23:01;5.75;;;4.82;;
55037;SDS011;40937;53.594;10.034;2023-04-24T00:25:27;5.30;;;4.80;;
55037;SDS011;40937;53.594;10.034;2023-04-24T00:27:54;4.72;;;4.38;;
55037;SDS011;40937;53.594;10.034;2023-04-24T00:30:21;5.03;;;4.68;;
55037;SDS011;40937;53.594;10.034;2023-04-24T00:32:48;5.00;;;4.60;;
55037;SDS011;40937;53.594;10.034;2023-04-24T00:35:16;5.25;;;4.85;;
55037;SDS011;40937;53.594;10.034;2023-04-24T00:37:45;5.57;;;5.07;;
55037;SDS011;40937;53.594;10.034;2023-04-24T00:40:12;5.90;;;4.68;;
55037;SDS011;40937;53.594;10.034;2023-04-24T00:42:39;4.32;;;4.03;;
55037;SDS011;40937;53.594;10.034;2023-04-24T00:45:07;7.05;;;4.88;;
55037;SDS011;40937;53.594;10.034;2023-04-24T00:47:34;4.80;;;4.32;;
55037;SDS011;40937;53.594;10.034;2023-04-24T00:50:01;5.50;;;5.00;;
55037;SDS011;40937;53.594;10.034;2023-04-24T00:52:30;5.05;;;4.65;;
55037;SDS011;40937;53.594;10.034;2023-04-24T00:54:57;5.10;;;4.75;;
55037;SDS011;40937;53.594;10.034;2023-04-24T00:57:24;5.38;;;4.88;;
55037;SDS011;40937;53.594;10.034;2023-04-24T00:59:52;5.57;;;5.07;;
55037;SDS011;40937;53.594;10.034;2023-04-24T01:02:19;5.10;;;4.68;;
55037;SDS011;40937;53.594;10.034;2023-04-24T01:04:46;5.07;;;4.78;;
55037;SDS011;40937;53.594;10.034;2023-04-24T01:07:13;6.13;;;5.32;;
55037;SDS011;40937;53.594;10.034;2023-04-24T01:09:41;5.13;;;4.72;;
55037;SDS011;40937;53.594;10.034;2023-04-24T01:12:08;5.20;;;4.90;;
55037;SDS011;40937;53.594;10.034;2023-04-24T01:14:37;4.80;;;4.50;;
55037;SDS011;40937;53.594;10.034;2023-04-24T01:17:04;4.72;;;4.43;;
55037;SDS011;40937;53.594;10.034;2023-04-24T01:19:31;5.22;;;4.85;;
55037;SDS011;40937;53.594;10.034;2023-04-24T01:21:58;5.68;;;5.28;;
55037;SDS011;40937;53.594;10.034;2023-04-24T01:24:26;5.85;;;5.35;;
55037;SDS011;40937;53.594;10.034;2023-04-24T01:26:53;5.35;;;4.80;;
55037;SDS011;40937;53.594;10.034;2023-04-24T01:29:20;5.68;;;5.20;;
55037;SDS011;40937;53.594;10.034;2023-04-24T01:31:47;6.55;;;5.07;;
55037;SDS011;40937;53.594;10.034;2023-04-24T01:34:14;7.03;;;4.82;;
55037;SDS011;40937;53.594;10.034;2023-04-24T01:36:42;5.47;;;4.95;;
55037;SDS011;40937;53.594;10.034;2023-04-24T01:39:09;6.18;;;4.60;;
55037;SDS011;40937;53.594;10.034;2023-04-24T01:41:38;4.28;;;4.00;;
55037;SDS011;40937;53.594;10.034;2023-04-24T01:44:04;4.15;;;3.90;;
55037;SDS011;40937;53.594;10.034;2023-04-24T01:46:31;5.03;;;4.63;;
55037;SDS011;40937;53.594;10.034;2023-04-24T01:49:00;4.22;;;3.92;;
55037;SDS011;40937;53.594;10.034;2023-04-24T01:51:27;4.32;;;4.03;;
55037;SDS011;40937;53.594;10.034;2023-04-24T01:53:56;4.03;;;3.72;;
55037;SDS011;40937;53.594;10.034;2023-04-24T01:56:23;3.65;;;3.20;;
55037;SDS011;40937;53.594;10.034;2023-04-24T01:58:54;4.07;;;3.85;;
55037;SDS011;40937;53.594;10.034;2023-04-24T02:01:23;3.25;;;3.05;;
55037;SDS011;40937;53.594;10.034;2023-04-24T02:03:50;4.57;;;3.50;;
55037;SDS011;40937;53.594;10.034;2023-04-24T02:06:17;3.22;;;2.88;;
55037;SDS011;40937;53.594;10.034;2023-04-24T02:08:47;2.95;;;2.50;;
55037;SDS011;40937;53.594;10.034;2023-04-24T02:11:14;2.85;;;2.65;;
55037;SDS011;40937;53.594;10.034;2023-04-24T02:13:40;3.20;;;2.75;;
55037;SDS011;40937;53.594;10.034;2023-04-24T02:16:09;4.28;;;3.10;;
55037;SDS011;40937;53.594;10.034;2023-04-24T02:18:36;2.67;;;2.45;;
55037;SDS011;40937;53.594;10.034;2023-04-24T02:21:03;3.03;;;2.80;;
55037;SDS011;40937;53.594;10.034;2023-04-24T02:23:29;2.20;;;2.05;;
55037;SDS011;40937;53.594;10.034;2023-04-24T02:25:56;2.40;;;2.30;;
55037;SDS011;40937;53.594;10.034;2023-04-24T02:28:24;2.67;;;2.47;;
55037;SDS011;40937;53.594;10.034;2023-04-24T02:30:51;3.83;;;2.78;;
55037;SDS011;40937;53.594;10.034;2023-04-24T02:33:23;3.70;;;2.75;;
55037;SDS011;40937;53.594;10.034;2023-04-24T02:35:49;2.65;;;2.53;;
55037;SDS011;40937;53.594;10.034;2023-04-24T02:38:16;2.67;;;2.47;;
55037;SDS011;40937;53.594;10.034;2023-04-24T02:40:43;3.10;;;2.90;;
55037;SDS011;40937;53.594;10.034;2023-04-24T02:43:10;2.83;;;2.50;;
55037;SDS011;40937;53.594;10.034;2023-04-24T02:45:37;3.05;;;2.75;;
55037;SDS011;40937;53.594;10.034;2023-04-24T02:48:04;2.92;;;2.72;;
55037;SDS011;40937;53.594;10.034;2023-04-24T02:50:32;3.63;;;3.35;;
55037;SDS011;40937;53.594;10.034;2023-04-24T02:52:59;3.78;;;2.67;;
55037;SDS011;40937;53.594;10.034;2023-04-24T02:55:26;2.63;;;2.53;;
55037;SDS011;40937;53.594;10.034;2023-04-24T02:57:53;2.95;;;2.75;;
55037;SDS011;40937;53.594;10.034;2023-04-24T03:00:20;2.78;;;2.30;;
55037;SDS011;40937;53.594;10.034;2023-04-24T03:02:47;2.42;;;2.28;;
55037;SDS011;40937;53.594;10.034;2023-04-24T03:05:15;2.60;;;2.50;;
55037;SDS011;40937;53.594;10.034;2023-04-24T03:07:43;4.60;;;2.00;;
55037;SDS011;40937;53.594;10.034;2023-04-24T03:10:11;4.20;;;2.20;;
55037;SDS011;40937;53.594;10.034;2023-04-24T03:12:43;2.00;;;1.90;;
55037;SDS011;40937;53.594;10.034;2023-04-24T03:15:10;3.33;;;2.00;;
55037;SDS011;40937;53.594;10.034;2023-04-24T03:17:37;1.85;;;1.75;;
55037;SDS011;40937;53.594;10.034;2023-04-24T03:20:05;2.30;;;2.20;;
55037;SDS011;40937;53.594;10.034;2023-04-24T03:22:33;2.35;;;2.22;;
55037;SDS011;40937;53.594;10.034;2023-04-24T03:25:02;1.92;;;1.83;;
55037;SDS011;40937;53.594;10.034;2023-04-24T03:27:30;6.38;;;1.95;;
55037;SDS011;40937;53.594;10.034;2023-04-24T03:30:01;2.25;;;1.70;;
55037;SDS011;40937;53.594;10.034;2023-04-24T03:32:39;2.10;;;1.88;;
55037;SDS011;40937;53.594;10.034;2023-04-24T03:35:08;2.95;;;2.10;;
55037;SDS011;40937;53.594;10.034;2023-04-24T03:37:36;2.17;;;2.08;;
55037;SDS011;40937;53.594;10.034;2023-04-24T03:40:27;1.30;;;1.30;;
55037;SDS011;40937;53.594;10.034;2023-04-24T03:42:56;1.70;;;1.60;;
55037;SDS011;40937;53.594;10.034;2023-04-24T03:45:23;1.38;;;1.27;;
55037;SDS011;40937;53.594;10.034;2023-04-24T03:47:51;1.88;;;1.75;;
55037;SDS011;40937;53.594;10.034;2023-04-24T03:50:18;2.42;;;1.67;;
55037;SDS011;40937;53.594;10.034;2023-04-24T03:52:48;1.63;;;1.52;;
55037;SDS011;40937;53.594;10.034;2023-04-24T03:55:24;2.17;;;2.00;;
55037;SDS011;40937;53.594;10.034;2023-04-24T03:57:54;1.58;;;1.48;;
55037;SDS011;40937;53.594;10.034;2023-04-24T04:00:22;3.50;;;1.88;;
55037;SDS011;40937;53.594;10.034;2023-04-24T04:03:02;1.77;;;1.67;;
55037;SDS011;40937;53.594;10.034;2023-04-24T04:05:29;2.83;;;1.40;;
55037;SDS011;40937;53.594;10.034;2023-04-24T04:07:56;1.95;;;1.40;;
55037;SDS011;40937;53.594;10.034;2023-04-24T04:10:23;1.63;;;1.52;;
55037;SDS011;40937;53.594;10.034;2023-04-24T04:12:50;2.50;;;1.60;;
55037;SDS011;40937;53.594;10.034;2023-04-24T04:15:19;1.67;;;1.63;;
55037;SDS011;40937;53.594;10.034;2023-04-24T04:17:48;1.98;;;1.50;;
55037;SDS011;40937;53.594;10.034;2023-04-24T04:20:15;1.42;;;1.33;;
55037;SDS011;40937;53.594;10.034;2023-04-24T04:22:42;1.50;;;1.40;;
55037;SDS011;40937;53.594;10.034;2023-04-24T04:25:11;1.48;;;1.40;;
55037;SDS011;40937;53.594;10.034;2023-04-24T04:27:39;1.00;;;1.00;;
55037;SDS011;40937;53.594;10.034;2023-04-24T04:30:10;1.33;;;1.23;;
55037;SDS011;40937;53.594;10.034;2023-04-24T04:32:58;1.48;;;1.25;;
55037;SDS011;40937;53.594;10.034;2023-04-24T04:35:26;3.95;;;1.25;;
55037;SDS011;40937;53.594;10.034;2023-04-24T04:37:53;1.35;;;1.25;;
55037;SDS011;40937;53.594;10.034;2023-04-24T04:40:44;1.30;;;1.20;;
55037;SDS011;40937;53.594;10.034;2023-04-24T04:43:13;2.17;;;1.30;;
55037;SDS011;40937;53.594;10.034;2023-04-24T04:45:47;3.47;;;1.35;;
55037;SDS011;40937;53.594;10.034;2023-04-24T04:48:35;4.03;;;1.65;;
55037;SDS011;40937;53.594;10.034;2023-04-24T04:51:05;1.30;;;1.20;;
55037;SDS011;40937;53.594;10.034;2023-04-24T04:53:32;1.10;;;1.00;;
55037;SDS011;40937;53.594;10.034;2023-04-24T04:55:58;1.10;;;1.10;;
55037;SDS011;40937;53.594;10.034;2023-04-24T04:58:32;1.50;;;1.10;;
55037;SDS011;40937;53.594;10.034;2023-04-24T05:01:01;2.60;;;1.85;;
55037;SDS011;40937;53.594;10.034;2023-04-24T05:03:32;1.50;;;1.40;;
55037;SDS011;40937;53.594;10.034;2023-04-24T05:06:06;1.42;;;1.42;;
55037;SDS011;40937;53.594;10.034;2023-04-24T05:08:36;2.50;;;1.52;;
55037;SDS011;40937;53.594;10.034;2023-04-24T05:11:06;4.40;;;1.25;;
55037;SDS011;40937;53.594;10.034;2023-04-24T05:13:34;2.03;;;1.25;;
55037;SDS011;40937;53.594;10.034;2023-04-24T05:16:02;1.30;;;1.20;;
55037;SDS011;40937;53.594;10.034;2023-04-24T05:18:30;1.60;;;1.50;;
55037;SDS011;40937;53.594;10.034;2023-04-24T05:20:57;3.85;;;1.30;;
55037;SDS011;40937;53.594;10.034;2023-04-24T05:23:26;5.30;;;1.15;;
55037;SDS011;40937;53.594;10.034;2023-04-24T05:25:55;1.30;;;1.20;;
55037;SDS011;40937;53.594;10.034;2023-04-24T05:28:22;1.58;;;1.30;;
55037;SDS011;40937;53.594;10.034;2023-04-24T05:31:01;3.25;;;1.40;;
55037;SDS011;40937;53.594;10.034;2023-04-24T05:33:28;1.10;;;1.10;;
55037;SDS011;40937;53.594;10.034;2023-04-24T05:35:56;2.55;;;1.20;;
55037;SDS011;40937;53.594;10.034;2023-04-24T05:38:23;2.10;;;1.13;;
55037;SDS011;40937;53.594;10.034;2023-04-24T05:40:52;0.95;;;0.95;;
55037;SDS011;40937;53.594;10.034;2023-04-24T05:43:19;4.72;;;2.15;;
55037;SDS011;40937;53.594;10.034;2023-04-24T05:45:46;1.40;;;1.30;;
55037;SDS011;40937;53.594;10.034;2023-04-24T05:48:13;2.53;;;1.50;;
55037;SDS011;40937;53.594;10.034;2023-04-24T05:50:40;1.88;;;1.33;;
55037;SDS011;40937;53.594;10.034;2023-04-24T05:53:07;5.57;;;1.23;;
55037;SDS011;40937;53.594;10.034;2023-04-24T05:55:36;2.35;;;1.33;;
55037;SDS011;40937;53.594;10.034;2023-04-24T05:58:05;1.23;;;1.00;;
55037;SDS011;40937;53.594;10.034;2023-04-24T06:00:34;6.45;;;1.50;;
55037;SDS011;40937;53.594;10.034;2023-04-24T06:03:06;4.95;;;2.45;;
55037;SDS011;40937;53.594;10.034;2023-04-24T06:05:33;2.17;;;1.70;;
55037;SDS011;40937;53.594;10.034;2023-04-24T06:08:02;1.67;;;1.58;;
55037;SDS011;40937;53.594;10.034;2023-04-24T06:10:33;5.53;;;1.60;;
55037;SDS011;40937;53.594;10.034;2023-04-24T06:13:01;3.83;;;1.55;;
55037;SDS011;40937;53.594;10.034;2023-04-24T06:15:31;1.70;;;1.30;;
55037;SDS011;40937;53.594;10.034;2023-04-24T06:18:06;7.25;;;1.40;;
55037;SDS011;40937;53.594;10.034;2023-04-24T06:20:34;1.20;;;1.10;;
55037;SDS011;40937;53.594;10.034;2023-04-24T06:23:04;2.33;;;1.58;;
55037;SDS011;40937;53.594;10.034;2023-04-24T06:25:33;2.45;;;2.03;;
55037;SDS011;40937;53.594;10.034;2023-04-24T06:27:59;2.80;;;1.50;;
55037;SDS011;40937;53.594;10.034;2023-04-24T06:30:30;1.08;;;1.08;;
55037;SDS011;40937;53.594;10.034;2023-04-24T06:32:57;1.60;;;1.10;;
55037;SDS011;40937;53.594;10.034;2023-04-24T06:35:24;1.23;;;1.10;;
55037;SDS011;40937;53.594;10.034;2023-04-24T06:37:51;1.30;;;1.20;;
55037;SDS011;40937;53.594;10.034;2023-04-24T06:40:18;2.33;;;1.30;;
55037;SDS011;40937;53.594;10.034;2023-04-24T06:42:45;2.15;;;1.63;;
55037;SDS011;40937;53.594;10.034;2023-04-24T06:45:14;1.30;;;1.23;;
55037;SDS011;40937;53.594;10.034;2023-04-24T06:47:44;1.27;;;1.20;;
55037;SDS011;40937;53.594;10.034;2023-04-24T06:50:11;1.33;;;1.23;;
55037;SDS011;40937;53.594;10.034;2023-04-24T06:52:38;1.77;;;1.38;;
55037;SDS011;40937;53.594;10.034;2023-04-24T06:55:05;1.67;;;1.58;;
55037;SDS011;40937;53.594;10.034;2023-04-24T06:57:32;2.10;;;1.45;;
55037;SDS011;40937;53.594;10.034;2023-04-24T06:59:59;3.25;;;1.30;;
55037;SDS011;40937;53.594;10.034;2023-04-24T07:02:26;1.52;;;1.42;;
55037;SDS011;40937;53.594;10.034;2023-04-24T07:04:57;1.17;;;1.17;;
55037;SDS011;40937;53.594;10.034;2023-04-24T07:07:24;1.73;;;1.63;;
55037;SDS011;40937;53.594;10.034;2023-04-24T07:09:52;1.45;;;1.35;;
55037;SDS011;40937;53.594;10.034;2023-04-24T07:12:19;2.70;;;1.55;;
55037;SDS011;40937;53.594;10.034;2023-04-24T07:14:47;1.73;;;1.45;;
55037;SDS011;40937;53.594;10.034;2023-04-24T07:17:14;5.35;;;1.65;;
55037;SDS011;40937;53.594;10.034;2023-04-24T07:19:41;1.85;;;1.75;;
55037;SDS011;40937;53.594;10.034;2023-04-24T07:22:09;2.65;;;2.00;;
55037;SDS011;40937;53.594;10.034;2023-04-24T07:24:42;1.80;;;1.70;;
55037;SDS011;40937;53.594;10.034;2023-04-24T07:27:09;2.15;;;1.77;;
55037;SDS011;40937;53.594;10.034;2023-04-24T07:29:35;1.75;;;1.65;;
55037;SDS011;40937;53.594;10.034;2023-04-24T07:32:03;1.85;;;1.75;;
55037;SDS011;40937;53.594;10.034;2023-04-24T07:34:30;3.60;;;1.85;;
55037;SDS011;40937;53.594;10.034;2023-04-24T07:36:57;2.50;;;2.30;;
55037;SDS011;40937;53.594;10.034;2023-04-24T07:39:26;1.98;;;1.88;;
55037;SDS011;40937;53.594;10.034;2023-04-24T07:41:54;2.10;;;2.00;;
55037;SDS011;40937;53.594;10.034;2023-04-24T07:44:21;2.30;;;2.10;;
55037;SDS011;40937;53.594;10.034;2023-04-24T07:46:48;2.13;;;1.92;;
55037;SDS011;40937;53.594;10.034;2023-04-24T07:49:15;4.45;;;2.00;;
55037;SDS011;40937;53.594;10.034;2023-04-24T07:51:42;2.45;;;2.35;;
55037;SDS011;40937;53.594;10.034;2023-04-24T07:54:09;2.63;;;2.50;;
55037;SDS011;40937;53.594;10.034;2023-04-24T07:56:37;3.33;;;2.40;;
55037;SDS011;40937;53.594;10.034;2023-04-24T07:59:04;2.83;;;2.50;;
55037;SDS011;40937;53.594;10.034;2023-04-24T08:01:31;2.40;;;2.30;;
55037;SDS011;40937;53.594;10.034;2023-04-24T08:03:58;10.50;;;2.67;;
55037;SDS011;40937;53.594;10.034;2023-04-24T08:06:25;2.25;;;2.15;;
55037;SDS011;40937;53.594;10.034;2023-04-24T08:08:55;2.28;;;2.17;;
55037;SDS011;40937;53.594;10.034;2023-04-24T08:11:22;5.45;;;2.65;;
55037;SDS011;40937;53.594;10.034;2023-04-24T08:13:50;2.85;;;2.65;;
55037;SDS011;40937;53.594;10.034;2023-04-24T08:16:17;3.00;;;2.80;;
55037;SDS011;40937;53.594;10.034;2023-04-24T08:18:44;2.95;;;2.75;;
55037;SDS011;40937;53.594;10.034;2023-04-24T08:21:11;4.55;;;3.17;;
55037;SDS011;40937;53.594;10.034;2023-04-24T08:23:42;4.97;;;2.83;;
55037;SDS011;40937;53.594;10.034;2023-04-24T08:26:09;3.78;;;3.58;;
55037;SDS011;40937;53.594;10.034;2023-04-24T08:28:36;5.72;;;3.00;;
55037;SDS011;40937;53.594;10.034;2023-04-24T08:31:05;4.45;;;3.55;;
55037;SDS011;40937;53.594;10.034;2023-04-24T08:33:32;3.03;;;2.83;;
55037;SDS011;40937;53.594;10.034;2023-04-24T08:36:00;3.67;;;3.47;;
55037;SDS011;40937;53.594;10.034;2023-04-24T08:38:27;3.47;;;3.28;;
55037;SDS011;40937;53.594;10.034;2023-04-24T08:40:53;3.05;;;2.83;;
55037;SDS011;40937;53.594;10.034;2023-04-24T08:43:21;3.20;;;3.00;;
55037;SDS011;40937;53.594;10.034;2023-04-24T08:45:48;2.95;;;2.65;;
55037;SDS011;40937;53.594;10.034;2023-04-24T08:48:17;3.60;;;2.47;;
55037;SDS011;40937;53.594;10.034;2023-04-24T08:50:44;2.83;;;2.63;;
55037;SDS011;40937;53.594;10.034;2023-04-24T08:53:11;3.28;;;2.97;;
55037;SDS011;40937;53.594;10.034;2023-04-24T08:55:38;3.90;;;3.60;;
55037;SDS011;40937;53.594;10.034;2023-04-24T08:58:06;4.63;;;4.22;;
55037;SDS011;40937;53.594;10.034;2023-04-24T09:00:33;4.30;;;3.92;;
55037;SDS011;40937;53.594;10.034;2023-04-24T09:03:00;4.38;;;3.70;;
55037;SDS011;40937;53.594;10.034;2023-04-24T09:05:28;4.40;;;3.97;;
55037;SDS011;40937;53.594;10.034;2023-04-24T09:07:56;4.32;;;3.90;;
55037;SDS011;40937;53.594;10.034;2023-04-24T09:10:23;4.40;;;4.10;;
55037;SDS011;40937;53.594;10.034;2023-04-24T09:12:51;4.78;;;4.00;;
55037;SDS011;40937;53.594;10.034;2023-04-24T09:15:18;3.50;;;3.20;;
55037;SDS011;40937;53.594;10.034;2023-04-24T09:17:46;6.55;;;4.70;;
55037;SDS011;40937;53.594;10.034;2023-04-24T09:20:13;3.30;;;3.10;;
55037;SDS011;40937;53.594;10.034;2023-04-24T09:22:41;3.33;;;3.13;;
55037;SDS011;40937;53.594;10.034;2023-04-24T10:01:07;4.65;;;4.25;;
55037;SDS011;40937;53.594;10.034;2023-04-24T10:36:46;7.72;;;6.72;;
55037;SDS011;40937;53.594;10.034;2023-04-24T10:39:16;8.25;;;7.25;;
55037;SDS011;40937;53.594;10.034;2023-04-24T10:41:43;7.68;;;6.97;;
55037;SDS011;40937;53.594;10.034;2023-04-24T10:44:12;7.80;;;7.15;;
55037;SDS011;40937;53.594;10.034;2023-04-24T10:46:42;8.10;;;7.40;;
55037;SDS011;40937;53.594;10.034;2023-04-24T10:49:10;7.93;;;7.13;;
55037;SDS011;40937;53.594;10.034;2023-04-24T10:51:44;7.22;;;6.57;;
55037;SDS011;40937;53.594;10.034;2023-04-24T10:54:22;10.13;;;8.05;;
55037;SDS011;40937;53.594;10.034;2023-04-24T10:56:49;9.00;;;8.15;;
55037;SDS011;40937;53.594;10.034;2023-04-24T10:59:23;7.60;;;7.00;;
55037;SDS011;40937;53.594;10.034;2023-04-24T11:01:52;8.13;;;7.43;;
55037;SDS011;40937;53.594;10.034;2023-04-24T11:04:28;8.43;;;7.60;;
55037;SDS011;40937;53.594;10.034;2023-04-24T11:06:56;8.63;;;7.93;;
55037;SDS011;40937;53.594;10.034;2023-04-24T11:09:25;10.50;;;9.23;;
55037;SDS011;40937;53.594;10.034;2023-04-24T11:12:02;8.70;;;7.88;;
55037;SDS011;40937;53.594;10.034;2023-04-24T11:14:29;8.43;;;7.75;;
55037;SDS011;40937;53.594;10.034;2023-04-24T11:16:56;9.25;;;7.38;;
55037;SDS011;40937;53.594;10.034;2023-04-24T11:19:24;8.98;;;8.13;;
55037;SDS011;40937;53.594;10.034;2023-04-24T11:21:55;7.57;;;6.97;;
55037;SDS011;40937;53.594;10.034;2023-04-24T11:24:27;8.90;;;7.90;;
55037;SDS011;40937;53.594;10.034;2023-04-24T11:26:54;7.75;;;7.05;;
55037;SDS011;40937;53.594;10.034;2023-04-24T11:29:22;8.07;;;7.32;;
55037;SDS011;40937;53.594;10.034;2023-04-24T11:31:49;13.27;;;7.22;;
55037;SDS011;40937;53.594;10.034;2023-04-24T11:34:17;8.60;;;6.93;;
55037;SDS011;40937;53.594;10.034;2023-04-24T11:36:44;6.93;;;6.38;;
55037;SDS011;40937;53.594;10.034;2023-04-24T11:39:11;7.70;;;6.93;;
55037;SDS011;40937;53.594;10.034;2023-04-24T11:41:40;7.88;;;7.18;;
55037;SDS011;40937;53.594;10.034;2023-04-24T11:44:07;8.65;;;7.88;;
55037;SDS011;40937;53.594;10.034;2023-04-24T11:46:34;7.50;;;7.00;;
55037;SDS011;40937;53.594;10.034;2023-04-24T11:49:03;8.13;;;7.53;;
55037;SDS011;40937;53.594;10.034;2023-04-24T11:51:30;9.32;;;8.50;;
55037;SDS011;40937;53.594;10.034;2023-04-24T11:53:58;8.57;;;7.68;;
55037;SDS011;40937;53.594;10.034;2023-04-24T11:56:25;7.68;;;6.93;;
55037;SDS011;40937;53.594;10.034;2023-04-24T11:58:54;7.80;;;7.10;;
55037;SDS011;40937;53.594;10.034;2023-04-24T12:01:21;10.30;;;6.90;;
55037;SDS011;40937;53.594;10.034;2023-04-24T12:03:49;7.10;;;6.50;;
55037;SDS011;40937;53.594;10.034;2023-04-24T12:06:16;5.95;;;5.47;;
55037;SDS011;40937;53.594;10.034;2023-04-24T12:08:45;6.32;;;5.57;;
55037;SDS011;40937;53.594;10.034;2023-04-24T12:11:14;5.60;;;5.07;;
55037;SDS011;40937;53.594;10.034;2023-04-24T12:13:41;8.07;;;5.60;;
55037;SDS011;40937;53.594;10.034;2023-04-24T12:16:09;11.25;;;5.50;;
55037;SDS011;40937;53.594;10.034;2023-04-24T12:18:41;5.13;;;4.72;;
55037;SDS011;40937;53.594;10.034;2023-04-24T12:21:14;6.45;;;5.00;;
55037;SDS011;40937;53.594;10.034;2023-04-24T12:23:42;5.80;;;5.35;;
55037;SDS011;40937;53.594;10.034;2023-04-24T12:26:12;6.03;;;5.50;;
55037;SDS011;40937;53.594;10.034;2023-04-24T12:28:39;5.32;;;4.93;;
55037;SDS011;40937;53.594;10.034;2023-04-24T12:31:06;5.95;;;5.55;;
55037;SDS011;40937;53.594;10.034;2023-04-24T12:33:35;6.20;;;5.18;;
55037;SDS011;40937;53.594;10.034;2023-04-24T12:36:05;5.40;;;4.90;;
55037;SDS011;40937;53.594;10.034;2023-04-24T12:38:32;8.68;;;5.45;;
55037;SDS011;40937;53.594;10.034;2023-04-24T12:41:06;6.70;;;4.70;;
55037;SDS011;40937;53.594;10.034;2023-04-24T12:43:33;6.40;;;5.30;;
55037;SDS011;40937;53.594;10.034;2023-04-24T12:46:00;5.70;;;5.30;;
55037;SDS011;40937;53.594;10.034;2023-04-24T12:48:27;5.97;;;4.63;;
55037;SDS011;40937;53.594;10.034;2023-04-24T12:50:55;5.53;;;5.03;;
55037;SDS011;40937;53.594;10.034;2023-04-24T12:53:26;5.55;;;5.15;;
55037;SDS011;40937;53.594;10.034;2023-04-24T12:55:55;8.27;;;7.47;;
55037;SDS011;40937;53.594;10.034;2023-04-24T12:58:21;6.18;;;5.68;;
55037;SDS011;40937;53.594;10.034;2023-04-24T13:00:48;5.65;;;5.18;;
55037;SDS011;40937;53.594;10.034;2023-04-24T13:03:15;6.93;;;5.72;;
55037;SDS011;40937;53.594;10.034;2023-04-24T13:05:42;5.80;;;5.38;;
55037;SDS011;40937;53.594;10.034;2023-04-24T13:08:11;8.10;;;5.72;;
55037;SDS011;40937;53.594;10.034;2023-04-24T13:10:38;5.88;;;5.50;;
55037;SDS011;40937;53.594;10.034;2023-04-24T13:13:05;6.03;;;5.65;;
55037;SDS011;40937;53.594;10.034;2023-04-24T13:15:32;6.22;;;5.82;;
55037;SDS011;40937;53.594;10.034;2023-04-24T13:17:59;6.80;;;5.65;;
55037;SDS011;40937;53.594;10.034;2023-04-24T13:20:26;4.80;;;4.50;;
55037;SDS011;40937;53.594;10.034;2023-04-24T13:22:53;4.80;;;4.40;;
55037;SDS011;40937;53.594;10.034;2023-04-24T13:25:21;4.85;;;4.55;;
55037;SDS011;40937;53.594;10.034;2023-04-24T13:27:49;4.50;;;4.20;;
55037;SDS011;40937;53.594;10.034;2023-04-24T13:30:16;5.30;;;4.80;;
55037;SDS011;40937;53.594;10.034;2023-04-24T13:32:43;6.00;;;4.70;;
55037;SDS011;40937;53.594;10.034;2023-04-24T13:35:13;4.22;;;3.92;;
55037;SDS011;40937;53.594;10.034;2023-04-24T13:37:40;5.55;;;4.53;;
55037;SDS011;40937;53.594;10.034;2023-04-24T13:40:07;4.72;;;4.43;;
55037;SDS011;40937;53.594;10.034;2023-04-24T13:42:35;5.30;;;4.55;;
55037;SDS011;40937;53.594;10.034;2023-04-24T13:45:03;5.00;;;4.70;;
55037;SDS011;40937;53.594;10.034;2023-04-24T13:47:30;4.45;;;4.15;;
55037;SDS011;40937;53.594;10.034;2023-04-24T13:49:57;4.90;;;4.53;;
55037;SDS011;40937;53.594;10.034;2023-04-24T13:52:24;4.57;;;4.28;;
55037;SDS011;40937;53.594;10.034;2023-04-24T13:54:51;3.75;;;3.45;;
55037;SDS011;40937;53.594;10.034;2023-04-24T13:57:18;3.60;;;3.20;;
55037;SDS011;40937;53.594;10.034;2023-04-24T13:59:46;5.10;;;3.58;;
55037;SDS011;40937;53.594;10.034;2023-04-24T14:02:13;3.72;;;3.40;;
55037;SDS011;40937;53.594;10.034;2023-04-24T14:04:40;4.55;;;4.15;;
55037;SDS011;40937;53.594;10.034;2023-04-24T14:07:07;3.22;;;3.03;;
55037;SDS011;40937;53.594;10.034;2023-04-24T14:09:34;3.85;;;3.55;;
55037;SDS011;40937;53.594;10.034;2023-04-24T14:12:01;5.18;;;3.50;;
55037;SDS011;40937;53.594;10.034;2023-04-24T14:14:30;3.90;;;3.60;;
55037;SDS011;40937;53.594;10.034;2023-04-24T14:16:58;4.72;;;4.40;;
55037;SDS011;40937;53.594;10.034;2023-04-24T14:19:25;3.42;;;3.22;;
55037;SDS011;40937;53.594;10.034;2023-04-24T14:21:52;3.35;;;3.15;;
55037;SDS011;40937;53.594;10.034;2023-04-24T14:24:21;3.42;;;3.22;;
55037;SDS011;40937;53.594;10.034;2023-04-24T14:26:48;3.90;;;3.58;;
55037;SDS011;40937;53.594;10.034;2023-04-24T14:29:15;5.22;;;3.05;;
55037;SDS011;40937;53.594;10.034;2023-04-24T14:31:42;4.13;;;3.83;;
55037;SDS011;40937;53.594;10.034;2023-04-24T14:34:11;3.15;;;2.92;;
55037;SDS011;40937;53.594;10.034;2023-04-24T14:36:38;4.20;;;3.80;;
55037;SDS011;40937;53.594;10.034;2023-04-24T14:39:06;3.72;;;3.53;;
55037;SDS011;40937;53.594;10.034;2023-04-24T14:41:33;3.78;;;3.42;;
55037;SDS011;40937;53.594;10.034;2023-04-24T14:44:01;3.72;;;3.53;;
55037;SDS011;40937;53.594;10.034;2023-04-24T14:46:28;6.15;;;4.45;;
55037;SDS011;40937;53.594;10.034;2023-04-24T14:48:55;4.90;;;4.60;;
55037;SDS011;40937;53.594;10.034;2023-04-24T14:51:23;7.00;;;5.30;;
55037;SDS011;40937;53.594;10.034;2023-04-24T14:53:50;7.25;;;6.55;;
55037;SDS011;40937;53.594;10.034;2023-04-24T14:56:17;4.97;;;4.68;;
55037;SDS011;40937;53.594;10.034;2023-04-24T14:58:44;5.03;;;4.63;;
55037;SDS011;40937;53.594;10.034;2023-04-24T15:01:14;5.13;;;4.82;;
55037;SDS011;40937;53.594;10.034;2023-04-24T15:03:42;5.25;;;4.75;;
55037;SDS011;40937;53.594;10.034;2023-04-24T15:06:09;5.97;;;5.57;;
55037;SDS011;40937;53.594;10.034;2023-04-24T15:08:39;6.05;;;5.65;;
55037;SDS011;40937;53.594;10.034;2023-04-24T15:11:07;6.15;;;5.65;;
55037;SDS011;40937;53.594;10.034;2023-04-24T15:13:35;6.78;;;6.30;;
55037;SDS011;40937;53.594;10.034;2023-04-24T15:16:03;6.32;;;5.97;;
55037;SDS011;40937;53.594;10.034;2023-04-24T15:18:35;6.90;;;6.25;;
55037;SDS011;40937;53.594;10.034;2023-04-24T15:21:03;5.90;;;5.50;;
55037;SDS011;40937;53.594;10.034;2023-04-24T15:23:31;6.50;;;5.22;;
55037;SDS011;40937;53.594;10.034;2023-04-24T15:26:00;4.72;;;4.32;;
55037;SDS011;40937;53.594;10.034;2023-04-24T15:28:27;4.18;;;3.97;;
55037;SDS011;40937;53.594;10.034;2023-04-24T15:30:54;3.15;;;2.95;;
55037;SDS011;40937;53.594;10.034;2023-04-24T15:33:21;2.33;;;2.22;;
55037;SDS011;40937;53.594;10.034;2023-04-24T15:35:48;2.63;;;2.00;;
55037;SDS011;40937;53.594;10.034;2023-04-24T15:38:15;1.80;;;1.70;;
55037;SDS011;40937;53.594;10.034;2023-04-24T15:40:42;1.98;;;1.80;;
55037;SDS011;40937;53.594;10.034;2023-04-24T15:43:11;2.00;;;1.90;;
55037;SDS011;40937;53.594;10.034;2023-04-24T15:45:38;2.20;;;2.10;;
55037;SDS011;40937;53.594;10.034;2023-04-24T15:48:05;2.17;;;2.08;;